Terminal Aerodrome Forecast
Issued by NWS

Home | Current Version | Previous Version | Text Only | Print | Product List | Glossary On
Versions: 1 2 3 4 5 6 7 8 9 10 11 12 13 14 15 16 17 18
000
FTUS45 KABQ 232000 AAA
TAFSAF
TAF AMD
KSAF 232029Z 2320/2418 12011KT P6SM VCTS SCT080CB BKN150
      TEMPO 2320/2322 VRB15G25KT -SHRA BKN070
     FM232300 14012G22KT P6SM SCT100 BKN150
     FM240100 14010KT P6SM SCT120
     FM240600 VRB04KT P6SM SKC=

USA.gov is the U.S. government's official web portal to all federal, state and local government web resources and services.